Time;durP1;ratioP1;P1;durP2;ratioP2;P2;SDS_P1;SDS_P2;PMS_P1;PMS_P2;Temp;Humidity;BMP_temperature;BMP_pressure;BME280_temperature;BME280_humidity;BME280_pressure;Samples;Min_cycle;Max_cycle;Signal;HPM_P1;HPM_P2
2021/05/18 00:49:17;;;;;;;4.20;2.60;;;12.20;99.90;;;;;;6098929;23;20022;-87
2021/05/18 00:51:48;;;;;;;3.70;2.00;;;12.20;99.90;;;;;;6116362;23;20038;-84
2021/05/18 00:59:54;;;;;;;3.90;2.55;;;12.40;99.90;;;;;;6055017;23;20014;-86
2021/05/18 01:02:22;;;;;;;6.10;2.83;;;12.30;99.90;;;;;;6105492;23;20017;-85
2021/05/18 01:07:47;;;;;;;4.03;2.55;;;12.40;99.90;;;;;;6073908;23;20246;-89
2021/05/18 01:10:17;;;;;;;5.93;2.80;;;12.30;99.90;;;;;;6113467;23;20042;-86
2021/05/18 01:12:44;;;;;;;4.75;3.10;;;12.30;99.90;;;;;;6112523;23;20046;-88
2021/05/18 01:15:12;;;;;;;6.70;3.38;;;12.30;99.90;;;;;;6112082;23;20050;-88
2021/05/18 01:17:40;;;;;;;8.18;4.30;;;12.30;99.90;;;;;;6065286;23;20050;-87
2021/05/18 01:20:09;;;;;;;7.38;4.50;;;12.30;99.90;;;;;;6112753;23;20034;-88
2021/05/18 01:22:38;;;;;;;6.78;4.40;;;12.20;99.90;;;;;;6087909;23;20042;-89
2021/05/18 01:25:06;;;;;;;11.45;6.60;;;11.70;99.90;;;;;;6111407;23;20053;-90
2021/05/18 01:27:33;;;;;;;11.82;7.40;;;11.40;99.90;;;;;;6104298;23;20014;-87
2021/05/18 01:38:56;;;;;;;13.18;7.60;;;11.00;99.90;;;;;;6092802;23;19921;-86
2021/05/18 01:44:11;;;;;;;12.63;8.73;;;10.90;99.90;;;;;;6118073;23;20029;-87
2021/05/18 01:46:39;;;;;;;14.20;9.23;;;11.00;99.90;;;;;;6132466;23;20017;-85
2021/05/18 01:49:09;;;;;;;20.60;9.17;;;11.00;99.90;;;;;;6132031;23;20041;-84
2021/05/18 01:51:50;;;;;;;16.17;9.70;;;10.90;99.90;;;;;;6102723;23;20010;-86
2021/05/18 01:54:24;;;;;;;14.30;8.50;;;10.90;99.90;;;;;;6079516;23;20017;-88
2021/05/18 01:57:05;;;;;;;19.55;9.40;;;10.90;99.90;;;;;;6103406;23;20013;-88
2021/05/18 01:59:40;;;;;;;15.65;9.05;;;11.00;99.90;;;;;;6122775;23;20014;-88
2021/05/18 02:02:17;;;;;;;15.23;8.80;;;10.90;99.90;;;;;;6123532;23;20082;-88
2021/05/18 02:04:49;;;;;;;18.38;9.98;;;10.90;99.90;;;;;;6099091;23;20032;-88
2021/05/18 02:07:20;;;;;;;16.30;9.75;;;10.90;99.90;;;;;;6143600;23;20006;-88
2021/05/18 02:09:51;;;;;;;17.75;9.45;;;10.90;99.90;;;;;;6100150;23;20014;-85
2021/05/18 02:12:20;;;;;;;15.20;9.45;;;11.00;99.90;;;;;;6085660;23;20001;-83
2021/05/18 02:14:52;;;;;;;12.82;8.35;;;11.00;99.90;;;;;;6128555;23;20311;-86
2021/05/18 02:49:07;;;;;;;21.85;11.85;;;11.30;99.90;;;;;;6139676;23;20018;-87
2021/05/18 02:49:25;;;;;;;19.73;12.00;;;11.20;99.90;;;;;;6133871;23;20029;-87
2021/05/18 02:51:57;;;;;;;19.45;12.57;;;11.20;99.90;;;;;;6092960;23;20013;-86
2021/05/18 02:54:28;;;;;;;20.83;12.48;;;11.10;99.90;;;;;;6114309;23;20041;-89
2021/05/18 02:57:01;;;;;;;20.27;12.57;;;11.20;99.90;;;;;;6118137;23;20010;-84
2021/05/18 02:59:28;;;;;;;;;;;11.20;99.90;;;;;;6142055;23;20020;-84
2021/05/18 03:02:01;;;;;;;18.50;11.60;;;11.20;99.90;;;;;;6084029;23;19933;-86
2021/05/18 03:04:32;;;;;;;19.83;12.05;;;11.20;99.90;;;;;;6066669;23;20269;-86
2021/05/18 03:07:04;;;;;;;20.80;11.80;;;11.20;99.90;;;;;;6041770;23;20021;-86
2021/05/18 03:09:31;;;;;;;19.70;11.50;;;11.20;99.90;;;;;;6036310;23;20042;-89
2021/05/18 03:11:59;;;;;;;19.52;12.15;;;11.20;99.90;;;;;;6082733;23;20038;-89
2021/05/18 03:14:26;;;;;;;24.13;11.80;;;11.10;99.90;;;;;;6083556;23;20361;-90
2021/05/18 03:16:56;;;;;;;17.58;11.20;;;11.00;99.90;;;;;;6059893;23;20021;-89
2021/05/18 03:19:24;;;;;;;18.67;11.45;;;11.10;99.90;;;;;;6084654;23;20046;-87
2021/05/18 03:21:53;;;;;;;17.45;10.10;;;11.10;99.90;;;;;;6099503;23;20002;-87
2021/05/18 03:24:24;;;;;;;12.40;8.80;;;11.20;99.90;;;;;;6098553;23;20010;-86
2021/05/18 03:26:54;;;;;;;14.90;9.55;;;11.20;99.90;;;;;;6097982;23;20014;-90
2021/05/18 03:29:26;;;;;;;14.15;9.55;;;11.10;99.90;;;;;;6074201;23;20013;-88
2021/05/18 03:34:42;;;;;;;16.67;9.90;;;11.10;99.90;;;;;;6071153;23;20010;-88
2021/05/18 03:37:14;;;;;;;13.88;9.40;;;11.20;99.90;;;;;;6094905;23;20010;-86
2021/05/18 04:03:25;;;;;;;11.10;6.95;;;11.60;99.90;;;;;;6078976;23;20053;-86
2021/05/18 04:17:18;;;;;;;12.35;6.90;;;11.60;99.90;;;;;;6022916;23;20014;-86
2021/05/18 04:19:53;;;;;;;12.32;7.05;;;11.40;99.90;;;;;;6101641;23;20010;-89
2021/05/18 04:22:37;;;;;;;9.13;6.72;;;11.40;99.90;;;;;;6114239;23;20049;-87
2021/05/18 04:39:58;;;;;;;12.05;7.85;;;11.50;99.90;;;;;;6054796;23;20042;-88
2021/05/18 04:51:07;;;;;;;14.00;8.23;;;11.60;99.90;;;;;;6119276;23;20060;-87
2021/05/18 04:53:47;;;;;;;12.55;8.20;;;11.60;99.90;;;;;;6127632;23;20017;-87
2021/05/18 05:08:02;;;;;;;12.88;8.73;;;11.90;99.90;;;;;;6047967;23;20338;-87
2021/05/18 05:16:42;;;;;;;14.00;8.40;;;12.00;99.90;;;;;;6001438;23;20372;-81
2021/05/18 05:19:10;;;;;;;17.65;8.82;;;12.00;99.90;;;;;;6055072;23;20051;-87
2021/05/18 05:21:39;;;;;;;13.45;8.48;;;11.90;99.90;;;;;;6089685;23;20026;-90
2021/05/18 05:24:08;;;;;;;15.52;8.60;;;11.60;99.90;;;;;;6115108;23;20017;-86
2021/05/18 05:26:36;;;;;;;13.15;8.43;;;11.70;99.90;;;;;;6068232;23;20010;-89
2021/05/18 05:29:04;;;;;;;;;;;11.60;99.90;;;;;;6062822;23;20006;-89
2021/05/18 05:31:33;;;;;;;12.27;7.70;;;11.60;99.90;;;;;;6084677;23;20254;-91
2021/05/18 05:34:05;;;;;;;13.05;8.02;;;11.60;99.90;;;;;;6084273;23;20275;-89
2021/05/18 05:36:37;;;;;;;15.43;7.95;;;11.60;99.90;;;;;;6038684;23;20319;-90
2021/05/18 05:39:08;;;;;;;;;;;11.60;99.90;;;;;;6121159;23;20002;-84
2021/05/18 05:41:37;;;;;;;10.65;7.30;;;11.90;99.90;;;;;;6126763;23;19932;-88
2021/05/18 05:44:05;;;;;;;13.50;7.68;;;11.80;99.90;;;;;;6098020;23;20010;-88
2021/05/18 05:46:33;;;;;;;17.75;8.40;;;11.90;99.90;;;;;;6097930;23;20037;-90
2021/05/18 05:49:01;;;;;;;16.30;7.97;;;11.90;99.90;;;;;;6119277;23;20010;-87
2021/05/18 05:51:29;;;;;;;12.93;7.05;;;12.10;99.90;;;;;;6089949;23;20017;-89
2021/05/18 05:54:00;;;;;;;24.77;7.38;;;12.00;99.90;;;;;;6065403;23;20042;-91
2021/05/18 05:56:29;;;;;;;10.20;6.80;;;11.90;99.90;;;;;;6053250;23;20017;-91
2021/05/18 05:59:00;;;;;;;13.75;7.80;;;12.00;99.90;;;;;;6099781;23;20006;-88
2021/05/18 06:01:29;;;;;;;13.50;6.50;;;12.00;99.90;;;;;;6073179;23;20017;-88
2021/05/18 06:03:56;;;;;;;9.02;6.13;;;12.10;99.90;;;;;;6073622;23;20021;-90
2021/05/18 06:06:24;;;;;;;11.10;5.90;;;12.20;99.90;;;;;;6066564;23;20010;-88
2021/05/18 06:08:52;;;;;;;10.10;6.03;;;12.40;99.90;;;;;;6054086;23;20072;-86
2021/05/18 06:11:23;;;;;;;13.70;6.60;;;12.50;99.90;;;;;;6072900;23;20007;-88
2021/05/18 06:35:46;;;;;;;12.18;6.53;;;12.50;99.90;;;;;;6046779;23;20249;-87
2021/05/18 06:41:36;;;;;;;12.05;6.13;;;12.70;99.90;;;;;;5985413;23;20012;-89
2021/05/18 06:47:07;;;;;;;12.20;6.95;;;12.70;99.90;;;;;;6120845;23;20044;-88
2021/05/18 06:49:37;;;;;;;18.55;6.65;;;12.70;99.90;;;;;;6146936;23;20013;-89
2021/05/18 06:52:09;;;;;;;15.93;7.10;;;12.80;99.90;;;;;;6091964;23;20005;-92
2021/05/18 06:54:37;;;;;;;9.20;5.28;;;12.90;99.90;;;;;;6116643;23;20050;-92
2021/05/18 06:57:08;;;;;;;14.77;5.63;;;13.20;99.90;;;;;;6114169;23;20146;-94
2021/05/18 07:02:22;;;;;;;12.32;5.95;;;13.50;99.90;;;;;;6120161;23;20009;-88
2021/05/18 07:04:53;;;;;;;17.52;5.05;;;13.70;99.90;;;;;;6094316;23;20021;-88
2021/05/18 07:07:26;;;;;;;7.47;4.75;;;13.80;99.90;;;;;;6113584;23;20014;-91
2021/05/18 07:09:55;;;;;;;14.43;5.13;;;13.90;99.90;;;;;;6142424;23;20014;-85
2021/05/18 07:15:13;;;;;;;7.63;4.25;;;13.70;99.90;;;;;;6109370;23;20156;-89
2021/05/18 07:17:41;;;;;;;10.48;5.00;;;13.60;99.90;;;;;;6110679;23;20057;-89
2021/05/18 07:20:09;;;;;;;11.50;4.50;;;13.60;99.90;;;;;;6088947;23;20251;-89
2021/05/18 07:22:37;;;;;;;25.25;5.82;;;13.60;99.90;;;;;;6115223;23;20509;-89
2021/05/18 07:25:06;;;;;;;8.80;4.38;;;13.60;99.90;;;;;;6112983;23;20017;-89
2021/05/18 07:27:34;;;;;;;10.85;3.83;;;13.50;99.90;;;;;;6118097;23;20006;-84
2021/05/18 07:32:54;;;;;;;12.55;4.90;;;13.60;99.90;;;;;;6124373;23;20270;-88
2021/05/18 07:35:23;;;;;;;10.32;4.03;;;13.70;99.90;;;;;;6089557;23;20045;-91
2021/05/18 07:37:55;;;;;;;12.40;4.00;;;14.00;99.90;;;;;;6111507;23;20291;-91
2021/05/18 07:40:23;;;;;;;9.38;4.00;;;14.10;99.90;;;;;;6112575;23;20263;-92
2021/05/18 07:42:52;;;;;;;6.22;3.70;;;14.30;99.90;;;;;;6136277;23;20278;-90
2021/05/18 07:45:21;;;;;;;9.40;3.90;;;14.40;99.90;;;;;;6112206;23;20334;-91
2021/05/18 07:47:49;;;;;;;;;;;14.50;99.90;;;;;;6113957;23;20043;-86
2021/05/18 07:50:22;;;;;;;6.47;3.30;;;14.70;99.90;;;;;;6088387;23;19949;-89
2021/05/18 08:02:18;;;;;;;8.27;2.95;;;15.10;99.90;;;;;;6117861;23;20046;-85
2021/05/18 08:06:47;;;;;;;8.63;3.67;;;14.70;99.90;;;;;;6116976;23;20021;-93
2021/05/18 08:09:16;;;;;;;8.57;3.47;;;14.80;99.90;;;;;;6113155;23;20243;-91
2021/05/18 08:11:44;;;;;;;9.02;3.80;;;14.90;99.90;;;;;;6119370;23;20025;-92
2021/05/18 08:14:11;;;;;;;10.00;3.47;;;15.00;99.90;;;;;;6120487;23;20009;-92
2021/05/18 08:16:55;;;;;;;8.95;3.70;;;15.10;99.90;;;;;;6124763;23;20021;-90
2021/05/18 08:19:53;;;;;;;9.93;3.90;;;15.10;99.90;;;;;;6104090;23;20009;-90
2021/05/18 09:44:27;;;;;;;8.93;4.30;;;14.60;99.90;;;;;;5989890;23;20039;-91
2021/05/18 10:35:43;;;;;;;7.07;2.60;;;16.40;89.10;;;;;;6059969;23;20038;-87
2021/05/18 10:38:42;;;;;;;6.05;2.88;;;17.00;86.70;;;;;;6065710;23;20046;-87
2021/05/18 10:41:16;;;;;;;8.77;3.22;;;16.60;87.10;;;;;;6042812;23;20034;-91
2021/05/18 10:43:48;;;;;;;9.98;2.92;;;17.10;87.10;;;;;;6061039;23;20022;-89
2021/05/18 10:46:23;;;;;;;9.38;3.70;;;17.30;79.40;;;;;;6060299;23;20334;-88
2021/05/18 10:49:06;;;;;;;8.23;3.40;;;17.60;79.00;;;;;;6084025;23;20478;-88
2021/05/18 10:51:43;;;;;;;7.10;3.05;;;17.40;78.30;;;;;;6011382;23;20019;-90
2021/05/18 10:54:23;;;;;;;7.65;3.25;;;17.30;80.90;;;;;;6058267;23;20026;-87
2021/05/18 10:57:25;;;;;;;8.25;3.47;;;17.00;82.00;;;;;;6057164;23;20018;-88
2021/05/18 10:59:56;;;;;;;8.30;3.72;;;16.90;82.30;;;;;;6056112;23;20058;-89
2021/05/18 11:02:28;;;;;;;8.00;3.10;;;16.80;82.00;;;;;;6077359;23;20043;-89
2021/05/18 11:04:59;;;;;;;9.50;3.70;;;17.60;81.90;;;;;;6080310;23;20015;-85
2021/05/18 11:07:35;;;;;;;10.02;3.78;;;18.60;77.00;;;;;;6053723;23;20312;-87
2021/05/18 11:10:06;;;;;;;7.28;3.15;;;18.10;74.80;;;;;;6053531;23;20381;-87
2021/05/18 11:12:35;;;;;;;8.82;3.42;;;17.00;79.30;;;;;;6063332;23;20025;-87
2021/05/18 11:15:07;;;;;;;;;;;16.80;83.90;;;;;;6066528;23;20017;-89
2021/05/18 11:17:37;;;;;;;7.53;3.85;;;16.80;83.20;;;;;;6069461;23;19929;-86
2021/05/18 11:20:09;;;;;;;9.48;3.15;;;16.70;86.30;;;;;;6068277;23;20011;-90
2021/05/18 11:25:42;;;;;;;10.75;3.85;;;18.70;77.00;;;;;;6059073;23;20010;-89
2021/05/18 11:28:16;;;;;;;7.75;4.07;;;19.90;72.00;;;;;;6058121;23;20014;-90
2021/05/18 11:30:46;;;;;;;12.55;4.32;;;20.20;68.10;;;;;;6055589;23;20051;-90
2021/05/18 11:33:15;;;;;;;6.63;3.78;;;21.00;63.80;;;;;;6056650;23;20223;-86
2021/05/18 11:35:43;;;;;;;9.18;4.03;;;21.00;62.50;;;;;;6030867;23;20046;-88
2021/05/18 11:38:18;;;;;;;9.02;4.00;;;20.40;63.80;;;;;;6079558;23;20022;-86
2021/05/18 11:40:50;;;;;;;9.52;3.95;;;20.10;63.80;;;;;;6082201;23;20017;-87
2021/05/18 11:43:49;;;;;;;12.52;4.95;;;18.50;72.00;;;;;;5977159;23;20926;31
2021/05/18 11:46:17;;;;;;;11.48;4.45;;;18.10;81.30;;;;;;6040548;23;20007;-84
2021/05/18 11:48:57;;;;;;;13.13;5.07;;;18.70;80.70;;;;;;5998565;23;20035;-91
2021/05/18 11:51:24;;;;;;;10.48;4.65;;;19.30;74.50;;;;;;6021858;23;20049;-91
2021/05/18 11:53:54;;;;;;;14.48;5.22;;;18.90;75.30;;;;;;6022347;23;20266;-91
2021/05/18 11:56:27;;;;;;;6.90;3.72;;;18.90;77.70;;;;;;6021894;23;20066;-91
2021/05/18 11:59:00;;;;;;;9.30;3.58;;;20.50;69.70;;;;;;6001159;23;20064;-88
2021/05/18 12:01:28;;;;;;;8.10;3.97;;;20.40;67.50;;;;;;6024154;23;20012;-88
2021/05/18 12:04:05;;;;;;;7.45;3.72;;;20.00;68.30;;;;;;6023735;23;20023;-89
2021/05/18 12:06:39;;;;;;;8.40;4.10;;;19.70;67.00;;;;;;5999523;23;20248;-87
2021/05/18 12:09:10;;;;;;;9.43;4.10;;;19.40;68.80;;;;;;5999584;23;20048;-88
2021/05/18 12:11:38;;;;;;;8.40;4.63;;;19.10;69.20;;;;;;6027819;23;20064;-86
2021/05/18 12:14:08;;;;;;;10.27;4.10;;;18.50;72.00;;;;;;6033345;23;20016;-86
2021/05/18 12:16:41;;;;;;;6.93;3.67;;;18.30;73.10;;;;;;6014010;23;20018;-87
2021/05/18 12:19:15;;;;;;;8.85;3.33;;;18.20;72.30;;;;;;6039267;23;20011;-87
2021/05/18 12:21:45;;;;;;;6.82;3.33;;;18.60;70.50;;;;;;6034366;23;20024;-87
2021/05/18 12:24:42;;;;;;;9.98;4.00;;;19.70;66.90;;;;;;6030202;23;20026;-85
2021/05/18 12:27:17;;;;;;;8.75;3.90;;;21.30;61.00;;;;;;6032675;23;20016;-86
2021/05/18 12:29:51;;;;;;;7.93;3.78;;;22.90;54.90;;;;;;6028304;23;20011;-86
2021/05/18 12:32:21;;;;;;;8.82;3.75;;;22.30;54.90;;;;;;6024666;23;20019;-85
2021/05/18 12:34:51;;;;;;;8.20;3.92;;;22.00;56.90;;;;;;5979487;23;20047;-88
2021/05/18 12:37:32;;;;;;;9.15;4.22;;;21.60;56.90;;;;;;6002438;23;20249;-87
2021/05/18 12:40:01;;;;;;;9.88;3.38;;;21.40;56.20;;;;;;6023238;23;20233;-84
2021/05/18 12:42:29;;;;;;;7.63;2.95;;;22.40;56.40;;;;;;6024862;23;20011;-84
2021/05/18 12:44:59;;;;;;;6.35;2.50;;;24.10;49.00;;;;;;6019502;23;20074;-83
2021/05/18 12:47:29;;;;;;;7.25;2.65;;;25.90;45.20;;;;;;5996820;23;20048;-84
2021/05/18 12:49:59;;;;;;;9.20;2.80;;;25.60;43.40;;;;;;5996912;23;20043;-88
2021/05/18 12:52:38;;;;;;;5.57;2.85;;;24.00;45.20;;;;;;5998003;23;20052;-88
2021/05/18 12:55:22;;;;;;;6.40;3.42;;;21.70;49.80;;;;;;6026112;23;20052;-90
2021/05/18 12:57:53;;;;;;;8.10;3.03;;;21.30;52.50;;;;;;5997703;23;20381;-88
2021/05/18 13:00:25;;;;;;;7.25;2.55;;;21.20;52.60;;;;;;5997516;23;20040;-89
2021/05/18 13:02:53;;;;;;;5.25;2.42;;;22.20;50.70;;;;;;5996422;23;20052;-84
2021/05/18 13:05:27;;;;;;;9.60;3.50;;;23.30;49.40;;;;;;6018623;23;20348;-85
2021/05/18 13:08:13;;;;;;;8.25;3.10;;;24.60;46.90;;;;;;6019781;23;20320;-87
2021/05/18 13:10:50;;;;;;;5.65;2.83;;;22.80;49.40;;;;;;6024246;23;20011;-86
2021/05/18 13:13:23;;;;;;;10.13;2.70;;;23.30;50.70;;;;;;5997651;23;20068;-85
2021/05/18 13:15:52;;;;;;;6.15;2.90;;;25.30;47.10;;;;;;6019166;23;20043;-84
2021/05/18 13:18:20;;;;;;;12.38;8.40;;;25.70;45.20;;;;;;5996343;23;20051;-86
2021/05/18 13:20:52;;;;;;;5.80;2.90;;;25.30;45.60;;;;;;6021958;23;20040;-84
2021/05/18 13:23:40;;;;;;;6.15;2.75;;;25.50;46.30;;;;;;6044868;23;20617;-85
2021/05/18 13:26:28;;;;;;;8.73;2.85;;;25.40;44.60;;;;;;5997184;23;20051;-86
2021/05/18 13:29:00;;;;;;;8.48;3.30;;;24.40;46.30;;;;;;6022252;23;20055;-85
2021/05/18 13:31:30;;;;;;;9.25;2.80;;;23.80;47.50;;;;;;6047894;23;20015;-86
2021/05/18 13:33:59;;;;;;;9.93;2.70;;;23.50;48.00;;;;;;6034114;23;20016;-84
2021/05/18 13:36:33;;;;;;;9.82;3.05;;;22.90;49.80;;;;;;6026262;23;20059;-85
2021/05/18 13:39:04;;;;;;;7.38;3.03;;;22.70;49.50;;;;;;6025143;23;20018;-86
2021/05/18 13:41:31;;;;;;;8.95;4.22;;;22.60;49.30;;;;;;6022804;23;20312;-85
2021/05/18 13:43:59;;;;;;;7.82;2.92;;;22.60;49.90;;;;;;6016839;23;20057;-85
2021/05/18 13:46:26;;;;;;;11.20;3.08;;;22.20;50.20;;;;;;5996110;24;20016;-86
2021/05/18 13:48:54;;;;;;;5.53;2.70;;;21.80;51.30;;;;;;5992461;24;20069;-87
2021/05/18 13:51:24;;;;;;;3.78;2.25;;;21.20;51.70;;;;;;5992882;24;20040;-87
2021/05/18 13:53:54;;;;;;;7.20;2.40;;;20.70;52.90;;;;;;5992607;24;20048;-87
2021/05/18 13:56:23;;;;;;;5.05;2.42;;;20.40;53.90;;;;;;5969687;24;20325;-87
2021/05/18 13:58:54;;;;;;;8.50;2.28;;;20.20;54.50;;;;;;5970741;24;20052;-88
2021/05/18 14:01:24;;;;;;;5.80;1.83;;;20.40;54.10;;;;;;5997368;24;20031;-86
2021/05/18 14:03:54;;;;;;;12.63;2.90;;;21.60;52.00;;;;;;6000081;24;20008;-85
2021/05/18 14:06:22;;;;;;;4.63;2.00;;;22.70;49.10;;;;;;5972210;24;20036;-85
2021/05/18 14:08:50;;;;;;;4.30;2.10;;;23.80;47.00;;;;;;5999076;24;20019;-85
2021/05/18 14:11:19;;;;;;;4.03;1.75;;;25.60;45.00;;;;;;5997385;24;20024;-83
2021/05/18 14:13:52;;;;;;;6.93;2.13;;;27.30;42.30;;;;;;5995768;24;20027;-84
2021/05/18 14:16:21;;;;;;;8.10;3.60;;;28.70;39.90;;;;;;5998273;24;20056;-84
2021/05/18 14:18:51;;;;;;;6.90;2.03;;;30.40;38.50;;;;;;5997860;24;20459;-83
2021/05/18 14:21:25;;;;;;;5.95;2.30;;;32.10;36.20;;;;;;6004582;24;20016;-83
2021/05/18 14:23:58;;;;;;;4.57;1.75;;;32.90;34.60;;;;;;5979809;24;20016;-84
2021/05/18 14:26:29;;;;;;;4.75;1.60;;;32.40;32.50;;;;;;6004819;24;20012;-84
2021/05/18 14:28:57;;;;;;;3.33;1.40;;;32.10;32.20;;;;;;6003034;24;20078;-84
2021/05/18 14:31:25;;;;;;;5.70;1.97;;;30.60;32.60;;;;;;5956990;24;20019;-83
2021/05/18 14:33:53;;;;;;;3.25;1.00;;;30.70;33.10;;;;;;5999954;24;20263;-83
2021/05/18 14:36:22;;;;;;;4.38;1.30;;;29.50;32.20;;;;;;5997985;24;20051;-83
2021/05/18 14:38:54;;;;;;;2.90;1.10;;;28.90;34.00;;;;;;5975273;24;20020;-83
2021/05/18 14:44:15;;;;;;;6.93;1.50;;;29.00;34.20;;;;;;5976876;23;20024;-87
2021/05/18 14:46:49;;;;;;;3.30;1.50;;;26.80;37.30;;;;;;6020935;23;20012;-84
2021/05/18 14:54:54;;;;;;;5.45;1.30;;;31.60;33.30;;;;;;5976878;24;20012;-83
2021/05/18 14:57:24;;;;;;;6.88;1.85;;;30.50;33.00;;;;;;6016662;23;20111;-83
2021/05/18 14:59:55;;;;;;;3.92;1.73;;;29.80;33.90;;;;;;6018550;23;20396;-83
2021/05/18 15:02:23;;;;;;;4.00;1.60;;;29.00;34.40;;;;;;5994850;23;20352;-83
2021/05/18 15:04:53;;;;;;;3.63;1.48;;;28.10;34.70;;;;;;5994996;24;20259;-84
2021/05/18 15:07:21;;;;;;;4.28;1.30;;;27.40;35.10;;;;;;6015030;23;20044;-85
2021/05/18 15:09:49;;;;;;;4.10;1.42;;;25.50;37.70;;;;;;6014577;23;20048;-87
2021/05/18 15:12:19;;;;;;;4.82;1.50;;;23.40;41.60;;;;;;5993131;23;20048;-85
2021/05/18 15:14:47;;;;;;;4.53;1.73;;;22.90;42.80;;;;;;5994300;23;20086;-84
2021/05/18 15:17:22;;;;;;;5.35;1.75;;;22.90;43.50;;;;;;6021686;23;20026;-85
2021/05/18 15:19:53;;;;;;;4.22;1.30;;;22.70;44.40;;;;;;6031414;23;20020;-88
2021/05/18 15:22:21;;;;;;;2.97;1.20;;;21.10;48.60;;;;;;6005823;24;20019;-89
2021/05/18 15:24:51;;;;;;;3.67;1.25;;;20.40;51.90;;;;;;6000886;24;20028;-87
2021/05/18 15:27:20;;;;;;;3.03;1.38;;;19.70;53.70;;;;;;6023345;23;20012;-87
2021/05/18 15:29:48;;;;;;;4.40;1.20;;;19.20;55.00;;;;;;5995936;24;20040;-87
2021/05/18 15:32:17;;;;;;;1.83;1.00;;;19.10;54.70;;;;;;6017978;23;20043;-89
2021/05/18 15:34:45;;;;;;;4.35;1.45;;;18.80;55.30;;;;;;5994401;24;20012;-88
2021/05/18 15:37:13;;;;;;;1.42;0.90;;;18.70;55.50;;;;;;5994869;24;20052;-90
2021/05/18 15:39:43;;;;;;;5.38;1.23;;;18.60;55.80;;;;;;5997590;23;20019;-92
2021/05/18 15:42:11;;;;;;;2.45;1.00;;;18.20;56.50;;;;;;6017310;23;20351;-89
2021/05/18 15:44:39;;;;;;;1.58;0.85;;;17.90;57.80;;;;;;6019295;23;20031;-89
2021/05/18 15:47:10;;;;;;;2.05;0.88;;;18.30;57.50;;;;;;5993645;24;20044;-89
2021/05/18 15:49:39;;;;;;;0.77;0.70;;;18.80;55.90;;;;;;5993528;24;20051;-90
2021/05/18 15:52:07;;;;;;;1.35;0.77;;;18.30;56.60;;;;;;5995401;24;20023;-89
2021/05/18 15:54:35;;;;;;;1.60;0.80;;;18.00;57.60;;;;;;5994731;24;20044;-90
2021/05/18 15:57:04;;;;;;;5.32;1.02;;;18.40;58.40;;;;;;5990372;24;20055;-84
2021/05/18 15:59:33;;;;;;;4.13;1.00;;;19.00;57.60;;;;;;5992433;24;20048;-88
2021/05/18 16:02:06;;;;;;;1.95;0.95;;;19.20;57.00;;;;;;5996169;24;20016;-89
2021/05/18 16:04:34;;;;;;;2.00;0.90;;;19.00;58.30;;;;;;5992196;24;20313;-85
2021/05/18 16:07:07;;;;;;;5.03;0.85;;;19.30;58.00;;;;;;6017301;23;20027;-86
2021/05/18 16:09:38;;;;;;;5.85;2.25;;;19.60;57.60;;;;;;5992477;24;20044;-84
2021/05/18 16:12:19;;;;;;;4.05;1.40;;;19.80;57.80;;;;;;5991476;24;20268;-84
2021/05/18 16:17:34;;;;;;;2.83;1.23;;;19.40;60.00;;;;;;6018236;23;20049;-89
2021/05/18 16:20:05;;;;;;;7.53;1.98;;;18.70;62.10;;;;;;5993663;24;20036;-89
2021/05/18 16:22:35;;;;;;;3.47;1.50;;;18.30;66.10;;;;;;5972510;24;20019;-89
2021/05/18 16:25:13;;;;;;;3.78;1.30;;;18.10;66.60;;;;;;5993405;24;20048;-89
2021/05/18 16:27:57;;;;;;;3.05;1.02;;;18.10;68.80;;;;;;5994046;24;20031;-89
2021/05/18 16:30:42;;;;;;;4.32;1.60;;;17.90;69.70;;;;;;5994547;24;20048;-89
2021/05/18 16:33:21;;;;;;;2.80;1.23;;;17.80;71.00;;;;;;5950700;24;20020;-91
2021/05/18 16:35:54;;;;;;;2.03;1.15;;;17.80;75.00;;;;;;5974911;24;20057;-91
2021/05/18 16:38:34;;;;;;;4.88;1.80;;;17.50;84.20;;;;;;5973159;24;20048;-90
2021/05/18 16:41:04;;;;;;;4.70;1.50;;;17.20;92.10;;;;;;5972177;24;20019;-89
2021/05/18 16:43:34;;;;;;;5.72;2.10;;;16.80;98.40;;;;;;5999390;23;20012;-83
2021/05/18 16:46:08;;;;;;;6.22;2.10;;;15.80;99.90;;;;;;6039314;23;20023;-90
2021/05/18 16:48:41;;;;;;;5.00;1.83;;;15.30;99.90;;;;;;6014413;23;20007;-90
2021/05/18 16:51:09;;;;;;;3.72;1.60;;;15.30;99.90;;;;;;6038366;23;20219;-89
2021/05/18 16:53:38;;;;;;;6.97;2.22;;;15.20;99.90;;;;;;6027740;23;20018;-89
2021/05/18 16:56:09;;;;;;;8.15;1.80;;;15.30;99.90;;;;;;6002376;23;20015;-89
2021/05/18 16:58:37;;;;;;;4.85;1.70;;;15.40;99.90;;;;;;6024759;23;20052;-89
2021/05/18 17:01:05;;;;;;;3.30;1.60;;;15.50;99.90;;;;;;6003133;23;20012;-90
2021/05/18 17:03:32;;;;;;;5.05;1.90;;;15.70;99.90;;;;;;5998603;23;20039;-91
2021/05/18 17:06:00;;;;;;;4.38;1.83;;;15.90;99.90;;;;;;6026479;23;20027;-90
2021/05/18 17:08:27;;;;;;;4.17;1.80;;;16.00;99.90;;;;;;6012507;23;20015;-89
2021/05/18 17:10:59;;;;;;;3.45;1.80;;;16.00;99.90;;;;;;6037138;23;20275;-89
2021/05/18 17:13:29;;;;;;;6.05;1.95;;;16.10;99.90;;;;;;6038340;23;20008;-89
2021/05/18 17:15:57;;;;;;;4.93;2.10;;;16.30;99.90;;;;;;6037331;23;20016;-89
2021/05/18 17:18:24;;;;;;;4.90;1.80;;;16.20;99.90;;;;;;6010515;23;20008;-89
2021/05/18 17:20:53;;;;;;;8.17;2.73;;;16.20;99.90;;;;;;5981277;23;20237;-90
2021/05/18 17:23:21;;;;;;;3.30;1.70;;;16.10;99.90;;;;;;6052654;23;20022;-90
2021/05/18 17:25:49;;;;;;;6.43;3.83;;;16.00;99.90;;;;;;6025637;23;20022;-89
2021/05/18 17:28:18;;;;;;;2.60;1.58;;;16.00;99.90;;;;;;6009021;23;20023;-90
2021/05/18 17:30:45;;;;;;;;;;;16.10;99.90;;;;;;6031084;23;20015;-86
2021/05/18 17:33:15;;;;;;;4.75;1.83;;;16.20;99.90;;;;;;5999227;23;19954;-86
2021/05/18 17:35:44;;;;;;;4.40;2.10;;;16.20;99.90;;;;;;6022583;23;20015;-87
2021/05/18 17:38:14;;;;;;;4.28;1.88;;;16.20;99.90;;;;;;6000130;23;20163;-86
2021/05/18 17:40:43;;;;;;;;;;;16.20;99.90;;;;;;5999089;23;20043;-86
2021/05/18 17:43:12;;;;;;;12.32;5.97;;;16.10;99.90;;;;;;6021370;23;20215;-86
2021/05/18 17:45:43;;;;;;;4.72;2.17;;;16.10;99.90;;;;;;6021557;23;20347;-86
2021/05/18 17:48:12;;;;;;;3.30;1.60;;;16.10;99.90;;;;;;6020997;23;20012;-87
2021/05/18 17:50:41;;;;;;;4.78;1.80;;;16.10;99.90;;;;;;6023729;23;20312;-87
2021/05/18 17:53:09;;;;;;;3.53;1.67;;;16.00;99.90;;;;;;6000759;23;20339;-86
2021/05/18 17:55:39;;;;;;;2.72;1.75;;;16.00;99.90;;;;;;6000217;23;20023;-86
2021/05/18 17:58:10;;;;;;;3.97;2.20;;;16.00;99.90;;;;;;5998428;23;20051;-86
2021/05/18 18:00:38;;;;;;;;;;;16.00;99.90;;;;;;5999792;23;20076;-88
2021/05/18 18:03:09;;;;;;;4.53;2.25;;;15.90;99.90;;;;;;6004517;23;19922;-85
2021/05/18 18:05:39;;;;;;;3.47;1.70;;;15.80;99.90;;;;;;6027295;23;20015;-86
2021/05/18 18:08:10;;;;;;;5.93;2.72;;;15.70;99.90;;;;;;6002437;23;20016;-86
2021/05/18 18:10:39;;;;;;;5.10;2.58;;;15.50;99.90;;;;;;6023878;23;20047;-86
2021/05/18 18:13:09;;;;;;;4.25;2.05;;;15.40;99.90;;;;;;5999276;23;20036;-88
2021/05/18 18:15:37;;;;;;;5.85;2.80;;;15.20;99.90;;;;;;5976502;23;20036;-89
2021/05/18 18:18:11;;;;;;;6.47;2.03;;;15.10;99.90;;;;;;6004716;23;20022;-88
2021/05/18 18:20:38;;;;;;;4.57;2.20;;;15.00;99.90;;;;;;6024474;23;20040;-87
2021/05/18 18:23:08;;;;;;;6.18;2.88;;;14.90;99.90;;;;;;5996884;23;20043;-87
2021/05/18 18:25:35;;;;;;;6.72;2.88;;;14.70;99.90;;;;;;6020947;23;20428;-91
2021/05/18 18:28:04;;;;;;;6.15;3.05;;;14.70;99.90;;;;;;5975471;23;20043;-87
2021/05/18 18:30:32;;;;;;;6.78;3.03;;;14.60;99.90;;;;;;6026133;23;20041;-91
2021/05/18 18:33:00;;;;;;;7.18;3.47;;;14.50;99.90;;;;;;6025853;23;20242;-93
2021/05/18 18:35:32;;;;;;;5.70;3.25;;;14.40;99.90;;;;;;6024703;23;20015;-85
2021/05/18 18:38:01;;;;;;;7.80;4.50;;;14.30;99.90;;;;;;5997063;23;20036;-85
2021/05/18 18:40:39;;;;;;;5.03;3.45;;;14.20;99.90;;;;;;5998075;23;20047;-91
2021/05/18 18:43:17;;;;;;;9.13;4.03;;;14.20;99.90;;;;;;6023739;23;20052;-91
2021/05/18 18:45:47;;;;;;;7.13;3.72;;;14.10;99.90;;;;;;6017825;23;20034;-92
2021/05/18 18:48:19;;;;;;;6.60;4.35;;;14.00;99.90;;;;;;6020390;23;20012;-91
2021/05/18 18:50:55;;;;;;;7.93;4.10;;;14.00;99.90;;;;;;6018934;23;20008;-93
2021/05/18 18:53:35;;;;;;;7.15;4.38;;;14.20;99.90;;;;;;5994846;23;20052;-90
2021/05/18 18:56:06;;;;;;;5.55;3.38;;;14.10;99.90;;;;;;5994320;24;20053;-90
2021/05/18 18:58:37;;;;;;;6.90;3.53;;;14.10;99.90;;;;;;5995883;24;20040;-91
2021/05/18 19:01:10;;;;;;;5.63;3.20;;;14.00;99.90;;;;;;6018097;23;20016;-91
2021/05/18 19:03:43;;;;;;;7.40;3.45;;;13.80;99.90;;;;;;6019966;23;20056;-92
2021/05/18 19:06:28;;;;;;;7.18;3.95;;;13.60;99.90;;;;;;6000334;23;20027;-90
2021/05/18 19:14:54;;;;;;;8.55;4.13;;;13.30;99.90;;;;;;6019658;23;20269;-91
2021/05/18 19:17:22;;;;;;;9.57;4.17;;;13.40;99.90;;;;;;6019666;23;20052;-91
2021/05/18 19:19:50;;;;;;;7.22;4.15;;;13.40;99.90;;;;;;6021906;23;20253;-89
2021/05/18 19:22:21;;;;;;;7.15;3.88;;;13.50;99.90;;;;;;6024375;23;20008;-92